Terminal Aerodrome Forecast
Issued by NWS

Home | Current Version | Previous Version | Text Only | Print | Product List | Glossary On
Versions: 1 2 3 4 5 6 7 8 9 10 11 12 13 14 15 16 17 18 19 20 21 22 23 24
876
FTUS43 KGRR 242330
TAFMKG
TAF
KMKG 242330Z 2500/2524 29008KT P6SM FEW030 SCT070
     FM250400 28009KT P6SM VCSH BKN050
     FM250700 23010KT 5SM -SHRA BR VCTS BKN035CB OVC070
     FM250900 28012KT P6SM SCT050 SCT120
     FM251200 28008KT P6SM OVC015
     FM251400 28014G25KT P6SM VCSH BKN035=

USA.gov is the U.S. government's official web portal to all federal, state and local government web resources and services.